Time;durP1;ratioP1;P1;durP2;ratioP2;P2;SDS_P1;SDS_P2;PMS_P1;PMS_P2;Temp;Humidity;BMP_temperature;BMP_pressure;BME280_temperature;BME280_humidity;BME280_pressure;Samples;Min_cycle;Max_cycle;Signal;HPM_P1;HPM_P2
2021/08/21 00:01:33;;;;;;;21.07;12.47;;;;;;;20.00;100.00;99558.66;1712934;83;21376;-77
2021/08/21 00:04:40;;;;;;;17.40;12.70;;;;;;;20.03;100.00;99553.97;1712985;83;21218;-77
2021/08/21 00:07:47;;;;;;;27.25;12.55;;;;;;;20.06;100.00;99547.92;1712746;83;21784;-77
2021/08/21 00:10:54;;;;;;;21.10;12.70;;;;;;;20.09;100.00;99549.32;1712875;83;21293;-77
2021/08/21 00:14:02;;;;;;;19.12;12.73;;;;;;;20.07;99.91;99559.86;1714323;83;21392;-77
2021/08/21 00:17:09;;;;;;;20.10;13.10;;;;;;;20.00;99.57;99557.28;1714545;83;21316;-77
2021/08/21 00:20:15;;;;;;;20.15;13.08;;;;;;;19.97;99.71;99563.33;1713823;83;21336;-77
2021/08/21 00:23:21;;;;;;;20.60;13.55;;;;;;;19.96;99.81;99560.82;1714368;83;21384;-77
2021/08/21 00:26:28;;;;;;;36.33;13.35;;;;;;;19.91;99.81;99556.03;1714366;83;21324;-77
2021/08/21 00:29:35;;;;;;;22.10;13.20;;;;;;;19.91;100.00;99560.20;1713099;83;21322;-76
2021/08/21 00:32:41;;;;;;;20.70;13.50;;;;;;;19.91;100.00;99565.20;1713348;83;21356;-77
2021/08/21 00:35:47;;;;;;;21.80;13.78;;;;;;;19.91;100.00;99558.81;1714547;83;21621;-77
2021/08/21 00:38:54;;;;;;;21.25;13.78;;;;;;;19.94;100.00;99559.67;1714607;83;21329;-77
2021/08/21 00:42:01;;;;;;;24.63;14.10;;;;;;;19.94;100.00;99561.05;1713982;83;21209;-77
2021/08/21 00:45:09;;;;;;;21.48;13.55;;;;;;;19.94;100.00;99560.22;1715432;83;21175;-77
2021/08/21 00:48:13;;;;;;;22.77;13.62;;;;;;;19.92;100.00;99552.16;1715403;83;21296;-77
2021/08/21 00:51:19;;;;;;;23.92;13.98;;;;;;;19.90;100.00;99555.72;1714916;83;21324;-77
2021/08/21 00:54:24;;;;;;;22.60;13.40;;;;;;;19.88;100.00;99549.05;1714611;83;21320;-77
2021/08/21 00:57:29;;;;;;;20.45;12.73;;;;;;;19.88;100.00;99558.77;1714418;83;21324;-77
2021/08/21 01:00:35;;;;;;;21.60;13.03;;;;;;;19.87;100.00;99551.53;1714074;83;21741;-77
2021/08/21 01:03:40;;;;;;;16.60;11.97;;;;;;;19.93;100.00;99555.77;1714588;83;21301;-77
2021/08/21 01:06:48;;;;;;;18.15;10.93;;;;;;;19.96;100.00;99556.11;1714588;83;21313;-77
2021/08/21 01:09:55;;;;;;;22.58;12.45;;;;;;;19.95;100.00;99554.44;1714572;83;21376;-77
2021/08/21 01:13:03;;;;;;;19.52;11.85;;;;;;;19.94;100.00;99557.44;1712855;83;21234;-77
2021/08/21 01:16:10;;;;;;;16.77;11.68;;;;;;;19.89;100.00;99554.88;1712867;83;21321;-77
2021/08/21 01:19:17;;;;;;;19.32;12.25;;;;;;;19.86;100.00;99553.19;1714339;83;21210;-77
2021/08/21 01:22:32;;;;;;;15.83;11.00;;;;;;;19.86;100.00;99554.03;1714642;83;21332;-77
2021/08/21 01:25:44;;;;;;;17.30;11.20;;;;;;;19.87;100.00;99550.15;1711326;83;21372;-77
2021/08/21 01:28:52;;;;;;;24.18;12.73;;;;;;;19.85;100.00;99544.55;1715147;83;21753;-76
2021/08/21 01:32:02;;;;;;;19.02;10.90;;;;;;;19.82;100.00;99547.30;1715316;83;21354;-77
2021/08/21 01:35:08;;;;;;;18.80;11.33;;;;;;;19.81;100.00;99550.34;1716597;83;21186;-77
2021/08/21 01:38:13;;;;;;;16.52;10.72;;;;;;;19.80;99.99;99549.48;1716444;83;21841;-77
2021/08/21 01:41:30;;;;;;;17.00;10.70;;;;;;;19.76;100.00;99546.95;1691283;83;21359;-77
2021/08/21 01:44:38;;;;;;;20.17;10.82;;;;;;;19.77;100.00;99551.95;1716410;83;21308;-77
2021/08/21 01:47:43;;;;;;;16.85;10.80;;;;;;;19.76;99.94;99544.69;1715523;83;21800;-77
2021/08/21 01:50:49;;;;;;;20.77;10.55;;;;;;;19.75;99.99;99543.02;1716526;83;21801;-77
2021/08/21 01:53:56;;;;;;;14.10;9.80;;;;;;;19.76;99.98;99548.86;1715372;83;21872;-77
2021/08/21 01:57:03;;;;;;;17.45;10.58;;;;;;;19.73;100.00;99554.94;1717304;83;21820;-77
2021/08/21 02:00:13;;;;;;;13.28;10.05;;;;;;;19.74;100.00;99556.61;1717123;83;21374;-77
2021/08/21 02:03:20;;;;;;;20.48;11.53;;;;;;;19.75;100.00;99566.60;1715871;83;21336;-77
2021/08/21 02:06:25;;;;;;;19.55;10.23;;;;;;;19.72;99.84;99563.81;1716565;83;21207;-76
2021/08/21 02:09:33;;;;;;;16.12;10.53;;;;;;;19.71;99.90;99570.42;1716912;83;21336;-77
2021/08/21 02:12:40;;;;;;;23.03;10.47;;;;;;;19.71;99.73;99566.27;1715109;83;21233;-77
2021/08/21 02:15:48;;;;;;;17.48;10.55;;;;;;;19.70;99.61;99565.98;1716525;83;21849;-77
2021/08/21 02:18:53;;;;;;;17.73;10.38;;;;;;;19.69;99.54;99559.30;1716407;83;21329;-77
2021/08/21 02:22:04;;;;;;;17.65;9.85;;;;;;;19.68;99.44;99565.41;1716883;83;21348;-77
2021/08/21 02:25:11;;;;;;;22.60;10.80;;;;;;;19.66;99.42;99569.80;1716518;83;21332;-77
2021/08/21 02:28:20;;;;;;;20.65;10.43;;;;;;;19.64;99.19;99571.16;1716571;83;21312;-76
2021/08/21 02:31:25;;;;;;;19.65;10.93;;;;;;;19.59;99.13;99570.50;1716536;83;21308;-77
2021/08/21 02:34:31;;;;;;;15.93;10.58;;;;;;;19.56;99.21;99573.77;1715537;83;21285;-77
2021/08/21 02:37:36;;;;;;;18.70;10.80;;;;;;;19.54;99.28;99566.27;1716604;83;21872;-77
2021/08/21 02:40:42;;;;;;;17.23;9.95;;;;;;;19.54;99.30;99568.20;1716433;83;21186;-78
2021/08/21 02:43:48;;;;;;;14.83;9.90;;;;;;;19.53;99.31;99567.36;1694389;83;21273;-77
2021/08/21 02:46:53;;;;;;;17.57;9.95;;;;;;;19.54;99.31;99567.66;1716339;83;21281;-77
2021/08/21 02:50:00;;;;;;;16.23;9.08;;;;;;;19.57;99.28;99571.84;1716363;83;21320;-77
2021/08/21 02:53:07;;;;;;;16.27;10.40;;;;;;;19.57;98.98;99567.67;1715062;83;21213;-77
2021/08/21 02:56:13;;;;;;;13.40;9.15;;;;;;;19.54;98.88;99567.66;1716642;83;21325;-77
2021/08/21 02:59:18;;;;;;;15.90;9.58;;;;;;;19.55;98.91;99567.94;1716419;83;21317;-77
2021/08/21 03:02:24;;;;;;;18.07;8.85;;;;;;;19.55;98.85;99571.27;1716362;83;21360;-77
2021/08/21 03:05:31;;;;;;;16.37;9.03;;;;;;;19.56;98.62;99577.94;1716435;83;21195;-76
2021/08/21 03:08:38;;;;;;;15.15;9.58;;;;;;;19.56;98.38;99576.55;1716359;83;21856;-77
2021/08/21 03:11:46;;;;;;;14.25;9.28;;;;;;;19.58;98.23;99577.16;1716448;83;21328;-77
2021/08/21 03:14:53;;;;;;;16.97;9.10;;;;;;;19.59;98.05;99577.44;1714831;83;21272;-77
2021/08/21 03:18:00;;;;;;;21.97;9.40;;;;;;;19.59;97.87;99587.15;1716250;83;21249;-77
2021/08/21 03:21:08;;;;;;;14.05;8.90;;;;;;;19.58;97.62;99584.09;1717402;83;21290;-77
2021/08/21 03:24:14;;;;;;;14.50;9.08;;;;;;;19.59;97.73;99590.47;1715902;82;21238;-77
2021/08/21 03:27:21;;;;;;;15.45;8.40;;;;;;;19.60;97.47;99590.79;1716654;83;21321;-77
2021/08/21 03:30:27;;;;;;;13.28;9.13;;;;;;;19.60;97.39;99587.47;1715099;83;21317;-77
2021/08/21 03:33:38;;;;;;;12.98;8.48;;;;;;;19.61;97.18;99595.23;1716967;83;21217;-76
2021/08/21 03:36:44;;;;;;;13.72;7.92;;;;;;;19.61;96.81;99591.91;1717434;83;21155;-77
2021/08/21 03:39:49;;;;;;;18.12;8.78;;;;;;;19.59;96.58;99596.02;1716458;83;21316;-77
2021/08/21 03:42:54;;;;;;;14.40;7.95;;;;;;;19.59;96.47;99596.86;1716492;83;21324;-77
2021/08/21 03:46:01;;;;;;;12.82;7.90;;;;;;;19.57;96.21;99592.13;1756020;81;21189;-77
2021/08/21 03:49:08;;;;;;;14.13;8.50;;;;;;;19.55;95.92;99595.67;1758924;81;21284;-77
2021/08/21 03:52:13;;;;;;;14.20;8.15;;;;;;;19.52;95.56;99591.17;1758901;81;21289;-77
2021/08/21 03:55:20;;;;;;;13.68;7.25;;;;;;;19.50;95.45;99596.14;1757677;81;21871;-77
2021/08/21 03:58:25;;;;;;;15.05;7.47;;;;;;;19.50;95.12;99600.30;1758844;81;21341;-77
2021/08/21 04:01:32;;;;;;;23.57;7.97;;;;;;;19.49;94.81;99606.41;1737065;81;21237;-77
2021/08/21 04:04:40;;;;;;;16.90;7.53;;;;;;;19.48;94.61;99606.11;1728553;83;21296;-76
2021/08/21 04:07:45;;;;;;;14.63;6.87;;;;;;;19.49;94.28;99606.41;1727370;83;21299;-77
2021/08/21 04:10:52;;;;;;;10.40;7.35;;;;;;;19.51;93.95;99615.84;1727401;82;21182;-77
2021/08/21 04:14:00;;;;;;;41.65;19.25;;;;;;;19.51;93.95;99616.69;1727532;83;21217;-77
2021/08/21 04:17:06;;;;;;;25.45;14.78;;;;;;;19.55;93.92;99619.80;1727538;83;21185;-77
2021/08/21 04:20:13;;;;;;;19.92;10.05;;;;;;;19.59;93.60;99615.44;1728861;83;21288;-77
2021/08/21 04:23:18;;;;;;;20.82;8.50;;;;;;;19.64;93.04;99615.55;1729118;83;21303;-77
2021/08/21 04:26:27;;;;;;;13.80;7.55;;;;;;;19.70;92.59;99616.47;1727807;83;21339;-77
2021/08/21 04:29:33;;;;;;;21.23;7.35;;;;;;;19.75;91.96;99615.16;1728609;83;21323;-77
2021/08/21 04:32:40;;;;;;;12.50;6.28;;;;;;;19.81;91.49;99621.94;1728883;83;21181;-77
2021/08/21 04:35:47;;;;;;;8.38;6.03;;;;;;;19.85;90.84;99620.86;1728073;83;21343;-77
2021/08/21 04:38:56;;;;;;;8.90;5.97;;;;;;;19.85;90.54;99627.80;1729127;83;21327;-77
2021/08/21 04:42:03;;;;;;;13.68;6.33;;;;;;;19.88;90.18;99625.91;1728876;83;21166;-77
2021/08/21 04:45:10;;;;;;;14.07;5.60;;;;;;;19.95;89.87;99634.05;1724519;83;21193;-77
2021/08/21 04:48:16;;;;;;;15.70;6.12;;;;;;;20.05;89.51;99641.17;1666380;86;21295;-77
2021/08/21 04:51:22;;;;;;;12.07;6.03;;;;;;;20.12;87.96;99647.38;1664900;86;21317;-77
2021/08/21 04:54:30;;;;;;;12.55;5.80;;;;;;;20.16;87.77;99651.32;1667466;86;21160;-77
2021/08/21 04:57:35;;;;;;;10.98;6.08;;;;;;;20.23;87.55;99652.52;1665495;86;21337;-77
2021/08/21 05:00:40;;;;;;;14.13;5.70;;;;;;;20.23;86.41;99653.91;1663919;85;21872;-77
2021/08/21 05:03:48;;;;;;;10.48;6.17;;;;;;;20.20;85.80;99655.83;1663679;86;21773;-77
2021/08/21 05:06:56;;;;;;;13.10;5.55;;;;;;;20.16;85.52;99658.27;1663922;86;21250;-77
2021/08/21 05:10:03;;;;;;;9.50;6.22;;;;;;;20.16;85.47;99666.59;1664962;86;21313;-77
2021/08/21 05:13:08;;;;;;;12.82;5.83;;;;;;;20.15;84.62;99665.75;1665031;86;21807;-77
2021/08/21 05:16:15;;;;;;;11.75;5.62;;;;;;;20.16;84.97;99670.20;1665284;86;21358;-77
2021/08/21 05:23:14;;;;;;;10.25;6.10;;;;;;;20.27;84.46;99669.80;1666318;86;21295;-77
2021/08/21 05:25:50;;;;;;;10.20;5.75;;;;;;;20.37;84.57;99670.49;1663315;86;21202;-76
2021/08/21 05:28:55;;;;;;;10.38;5.87;;;;;;;20.50;83.94;99662.38;1666720;86;21306;-77
2021/08/21 05:32:01;;;;;;;16.35;6.72;;;;;;;20.60;83.17;99664.73;1663440;86;21381;-77
2021/08/21 05:35:07;;;;;;;13.45;5.87;;;;;;;20.76;82.04;99666.34;1666042;86;21836;-77
2021/08/21 05:38:13;;;;;;;17.82;6.12;;;;;;;20.90;81.57;99670.41;1663063;86;21260;-77
2021/08/21 05:41:19;;;;;;;7.42;5.15;;;;;;;21.01;79.95;99666.64;1664018;86;21324;-78
2021/08/21 05:44:24;;;;;;;16.30;6.47;;;;;;;21.12;79.32;99669.81;1666279;86;21907;-78
2021/08/21 05:47:32;;;;;;;10.98;6.45;;;;;;;21.22;78.96;99669.64;1671763;84;21327;-78
2021/08/21 05:50:41;;;;;;;8.20;5.47;;;;;;;21.36;78.87;99682.05;1691462;85;21191;-78
2021/08/21 05:53:47;;;;;;;12.37;5.70;;;;;;;21.54;77.56;99671.11;1691895;85;21244;-78
2021/08/21 05:56:55;;;;;;;20.15;6.33;;;;;;;21.70;76.89;99677.12;1689701;84;21268;-78
2021/08/21 06:00:02;;;;;;;11.18;5.28;;;;;;;21.87;75.66;99675.58;1689683;84;21208;-77
2021/08/21 06:03:06;;;;;;;9.85;4.67;;;;;;;22.09;75.70;99682.44;1690778;85;21344;-78
2021/08/21 06:06:12;;;;;;;9.65;4.92;;;;;;;22.27;73.41;99676.48;1690790;85;21861;-78
2021/08/21 06:09:20;;;;;;;8.65;5.15;;;;;;;22.35;72.81;99684.89;1690939;85;21311;-78
2021/08/21 06:12:25;;;;;;;10.58;4.53;;;;;;;22.40;72.50;99690.50;1690843;85;21196;-78
2021/08/21 06:15:31;;;;;;;7.25;4.72;;;;;;;22.43;71.78;99682.97;1691055;85;21319;-78
2021/08/21 06:18:37;;;;;;;7.65;4.90;;;;;;;22.39;70.81;99690.19;1690945;85;21303;-79
2021/08/21 06:21:45;;;;;;;9.63;4.60;;;;;;;22.38;70.58;99691.30;1690878;85;21335;-78
2021/08/21 06:24:50;;;;;;;9.05;4.80;;;;;;;22.38;69.92;99692.14;1691181;85;21890;-77
2021/08/21 06:27:57;;;;;;;10.65;4.35;;;;;;;22.43;69.83;99693.55;1689977;85;21206;-77
2021/08/21 06:31:02;;;;;;;6.95;4.55;;;;;;;22.44;69.23;99695.27;1690825;85;21775;-77
2021/08/21 06:34:08;;;;;;;10.98;4.47;;;;;;;22.48;69.63;99692.75;1691103;85;21233;-77
2021/08/21 06:37:12;;;;;;;10.95;4.20;;;;;;;22.59;69.23;99697.85;1690516;85;21224;-77
2021/08/21 06:40:19;;;;;;;9.03;4.53;;;;;;;22.64;69.36;99709.86;1690865;85;21177;-77
2021/08/21 06:43:24;;;;;;;10.68;4.87;;;;;;;22.74;70.01;99713.81;1691936;85;21272;-77
2021/08/21 06:46:32;;;;;;;10.25;4.87;;;;;;;22.77;68.30;99716.04;1690797;85;21889;-77
2021/08/21 06:49:36;;;;;;;8.83;5.22;;;;;;;22.75;69.72;99712.14;1691015;85;21671;-77
2021/08/21 06:52:42;;;;;;;9.30;5.08;;;;;;;22.87;69.34;99723.09;1691125;85;21173;-77
2021/08/21 06:55:49;;;;;;;6.72;4.72;;;;;;;22.93;68.75;99719.23;1690925;85;21334;-77
2021/08/21 06:58:54;;;;;;;12.35;5.22;;;;;;;22.98;68.87;99724.83;1691082;85;21213;-77
2021/08/21 07:02:00;;;;;;;7.15;4.70;;;;;;;23.05;68.26;99728.19;1685970;85;21331;-77
2021/08/21 07:05:05;;;;;;;10.23;5.92;;;;;;;23.07;67.65;99734.36;1646429;87;21328;-77
2021/08/21 07:08:09;;;;;;;7.70;4.80;;;;;;;23.15;68.46;99733.84;1650357;87;21340;-77
2021/08/21 07:11:15;;;;;;;11.12;5.12;;;;;;;23.24;67.28;99738.87;1632658;88;21343;-78
2021/08/21 07:14:21;;;;;;;6.10;4.35;;;;;;;23.32;67.40;99738.34;1660527;86;21376;-77
2021/08/21 07:17:26;;;;;;;11.97;4.87;;;;;;;23.33;66.44;99735.83;1660521;86;21888;-77
2021/08/21 07:20:32;;;;;;;9.53;5.30;;;;;;;23.31;66.79;99742.25;1661781;86;21205;-78
2021/08/21 07:23:38;;;;;;;9.40;4.62;;;;;;;23.32;66.22;99752.30;1666822;85;21225;-78
2021/08/21 07:26:44;;;;;;;14.73;4.95;;;;;;;23.34;66.38;99738.92;1678697;85;21232;-77
2021/08/21 07:29:50;;;;;;;8.33;5.15;;;;;;;23.40;66.44;99761.54;1678820;85;21318;-77
2021/08/21 07:32:56;;;;;;;13.30;5.20;;;;;;;23.43;64.21;99760.97;1673154;85;21359;-77
2021/08/21 07:36:02;;;;;;;7.28;5.22;;;;;;;23.46;64.60;99764.63;1673214;85;21838;-77
2021/08/21 07:39:07;;;;;;;10.75;4.97;;;;;;;23.47;63.05;99764.34;1677082;85;21371;-77
2021/08/21 07:42:13;;;;;;;9.05;4.62;;;;;;;23.42;62.94;99759.30;1667557;85;21922;-77
2021/08/21 07:45:19;;;;;;;9.35;5.03;;;;;;;23.37;63.93;99764.87;1665954;85;21316;-77
2021/08/21 07:48:25;;;;;;;7.12;5.08;;;;;;;23.38;63.50;99767.94;1661248;85;21859;-77
2021/08/21 07:51:30;;;;;;;14.47;5.05;;;;;;;23.36;63.91;99771.01;1687344;85;21842;-77
2021/08/21 07:54:36;;;;;;;8.58;5.10;;;;;;;23.33;64.31;99777.69;1655679;85;21193;-77
2021/08/21 07:57:42;;;;;;;8.28;4.92;;;;;;;23.35;63.84;99767.11;1665414;85;21948;-77
2021/08/21 08:00:48;;;;;;;13.95;4.72;;;;;;;23.40;64.73;99772.14;1664672;85;21315;-77
2021/08/21 08:03:54;;;;;;;7.65;4.92;;;;;;;23.51;65.01;99769.38;1665499;85;21200;-77
2021/08/21 08:06:59;;;;;;;9.40;4.65;;;;;;;23.66;65.17;99773.07;1658509;85;21237;-77
2021/08/21 08:10:05;;;;;;;9.98;5.35;;;;;;;23.82;63.42;99777.31;1685314;85;22715;-77
2021/08/21 08:13:12;;;;;;;6.58;5.17;;;;;;;23.86;63.25;99773.69;1669823;85;21190;-77
2021/08/21 08:16:18;;;;;;;10.72;4.95;;;;;;;23.87;62.60;99768.38;1672453;85;21299;-77
2021/08/21 08:19:23;;;;;;;9.20;5.08;;;;;;;23.90;62.73;99778.14;1672279;85;21323;-78
2021/08/21 08:22:27;;;;;;;7.53;4.10;;;;;;;23.93;61.84;99773.41;1665093;85;21314;-78
2021/08/21 08:25:33;;;;;;;7.08;4.92;;;;;;;23.93;60.43;99776.20;1657216;85;21859;-77
2021/08/21 08:28:37;;;;;;;8.35;4.28;;;;;;;23.93;60.89;99774.80;1666548;85;21314;-77
2021/08/21 08:31:43;;;;;;;5.97;4.85;;;;;;;23.94;60.54;99776.47;1663827;85;22135;-77
2021/08/21 08:34:49;;;;;;;6.97;4.70;;;;;;;23.91;60.95;99777.88;1683135;85;21294;-77
2021/08/21 08:37:56;;;;;;;9.48;4.97;;;;;;;23.91;60.88;99775.66;1657556;85;21213;-77
2021/08/21 08:41:02;;;;;;;8.68;4.62;;;;;;;23.93;59.87;99766.42;1686517;85;21297;-77
2021/08/21 08:44:07;;;;;;;7.45;4.62;;;;;;;23.99;60.63;99770.89;1673365;85;21849;-77
2021/08/21 08:47:12;;;;;;;10.38;4.53;;;;;;;24.04;60.75;99768.10;1665775;85;21362;-78
2021/08/21 08:50:20;;;;;;;7.53;4.50;;;;;;;24.15;60.80;99768.41;1657430;85;21190;-77
2021/08/21 08:53:26;;;;;;;9.33;4.58;;;;;;;24.20;60.08;99768.41;1670739;85;21303;-77
2021/08/21 08:56:31;;;;;;;11.60;4.72;;;;;;;24.23;60.16;99762.27;1665474;85;21204;-77
2021/08/21 08:59:39;;;;;;;7.47;4.58;;;;;;;24.28;61.13;99766.15;1682197;85;21242;-77
2021/08/21 09:02:50;;;;;;;7.08;4.50;;;;;;;24.32;59.96;99763.91;1681390;84;21207;-77
2021/08/21 09:05:56;;;;;;;10.93;5.05;;;;;;;24.34;60.80;99767.28;1682182;85;21305;-78
2021/08/21 09:09:18;;;;;;;8.33;3.90;;;;;;;24.41;61.98;99769.81;1681340;84;21191;-78
2021/08/21 09:12:30;;;;;;;7.20;3.95;;;;;;;24.52;61.90;99770.11;1668631;85;21210;-77
2021/08/21 09:15:37;;;;;;;6.03;4.12;;;;;;;24.63;58.46;99779.30;1676420;85;21216;-77
2021/08/21 09:18:46;;;;;;;6.65;4.37;;;;;;;24.66;58.38;99771.77;1679881;85;21774;-77
2021/08/21 09:21:50;;;;;;;8.40;4.42;;;;;;;24.66;59.14;99767.00;1678416;85;21393;-77
2021/08/21 09:24:56;;;;;;;7.70;3.85;;;;;;;24.69;57.72;99772.58;1644259;85;21213;-77
2021/08/21 09:28:01;;;;;;;5.62;4.10;;;;;;;24.71;57.77;99766.16;1681079;85;21168;-77
2021/08/21 09:31:13;;;;;;;9.10;3.52;;;;;;;24.76;58.21;99777.89;1682420;85;21305;-76
2021/08/21 09:34:18;;;;;;;10.50;3.77;;;;;;;24.79;56.52;99773.11;1683331;85;21317;-77
2021/08/21 09:37:25;;;;;;;5.62;3.83;;;;;;;24.79;55.58;99774.52;1682997;85;21321;-77
2021/08/21 09:40:39;;;;;;;6.45;3.98;;;;;;;24.80;54.96;99773.41;1681830;85;21340;-77
2021/08/21 09:43:46;;;;;;;9.70;3.98;;;;;;;24.83;56.35;99774.22;1682869;85;21349;-77
2021/08/21 09:46:52;;;;;;;7.72;4.15;;;;;;;24.89;57.31;99760.49;1681550;85;21838;-77
2021/08/21 09:49:58;;;;;;;8.03;4.20;;;;;;;24.99;56.22;99771.12;1681589;85;22561;-77
2021/08/21 09:53:13;;;;;;;14.95;4.37;;;;;;;25.07;55.99;99771.10;1691034;85;21315;-77
2021/08/21 09:56:19;;;;;;;9.45;3.70;;;;;;;25.14;56.26;99771.66;1689733;85;21843;-77
2021/08/21 09:59:24;;;;;;;4.72;3.47;;;;;;;25.21;56.27;99769.37;1691041;85;21765;-77
2021/08/21 10:02:29;;;;;;;10.88;3.98;;;;;;;25.28;56.01;99779.44;1691194;85;21310;-77
2021/08/21 10:05:35;;;;;;;7.20;4.58;;;;;;;25.34;56.28;99776.88;1690357;85;21630;-77
2021/08/21 10:08:41;;;;;;;12.90;4.62;;;;;;;25.40;55.96;99780.76;1691031;85;21193;-77
2021/08/21 10:11:47;;;;;;;8.40;4.75;;;;;;;25.47;55.39;99774.87;1689606;85;21839;-77
2021/08/21 10:14:54;;;;;;;9.60;4.55;;;;;;;25.53;55.70;99773.70;1690884;85;21854;-78
2021/08/21 10:18:02;;;;;;;9.00;4.60;;;;;;;25.62;55.67;99773.37;1689864;85;21312;-77
2021/08/21 10:21:07;;;;;;;8.00;4.60;;;;;;;25.74;54.63;99779.48;1689960;85;21394;-77
2021/08/21 10:24:13;;;;;;;10.45;4.55;;;;;;;25.80;54.10;99780.87;1690984;85;21824;-78
2021/08/21 10:27:35;;;;;;;8.63;4.72;;;;;;;25.83;55.01;99780.27;1689942;85;21363;-77
2021/08/21 10:30:53;;;;;;;12.50;4.87;;;;;;;25.90;54.65;99780.80;1690887;85;21307;-78
2021/08/21 10:34:05;;;;;;;9.25;4.35;;;;;;;25.98;54.03;99793.64;1691151;85;21209;-77
2021/08/21 10:37:11;;;;;;;6.42;4.70;;;;;;;26.04;53.91;99793.03;1689839;85;22581;-77
2021/08/21 10:40:37;;;;;;;8.55;4.42;;;;;;;26.08;53.58;99792.73;1690809;85;21890;-77
2021/08/21 10:44:04;;;;;;;9.83;4.58;;;;;;;26.10;53.90;99793.83;1690897;85;21601;-77
2021/08/21 10:47:10;;;;;;;10.45;4.60;;;;;;;26.08;54.59;99794.13;1691779;85;21316;-77
2021/08/21 10:50:37;;;;;;;13.95;4.33;;;;;;;26.08;53.75;99791.33;1690862;85;22598;-77
2021/08/21 10:53:43;;;;;;;10.38;4.45;;;;;;;26.05;54.30;99793.87;1692125;84;21398;-78
2021/08/21 10:56:49;;;;;;;7.50;3.30;;;;;;;26.06;53.73;99788.53;1694184;84;21776;-77
2021/08/21 10:59:54;;;;;;;11.00;4.10;;;;;;;26.12;53.16;99785.41;1694086;84;21319;-77
2021/08/21 11:03:05;;;;;;;5.60;3.58;;;;;;;26.20;52.51;99797.38;1694328;84;21196;-77
2021/08/21 11:06:14;;;;;;;5.95;4.28;;;;;;;26.29;53.19;99791.16;1694279;84;21402;-77
2021/08/21 11:09:26;;;;;;;7.35;3.80;;;;;;;26.43;53.51;99783.20;1692880;84;21197;-77
2021/08/21 11:12:46;;;;;;;7.87;3.90;;;;;;;26.59;51.16;99793.74;1692866;84;21248;-78
2021/08/21 11:15:51;;;;;;;;;;;;;;;26.68;51.89;99793.38;1695578;84;21267;-78
2021/08/21 11:18:59;;;;;;;5.83;3.80;;;;;;;26.80;52.16;99787.92;1637397;87;20286;-78
2021/08/21 11:22:31;;;;;;;6.10;4.28;;;;;;;26.90;51.34;99789.20;1644851;87;21889;-78
2021/08/21 11:25:36;;;;;;;9.98;3.92;;;;;;;26.86;50.92;99788.13;1677338;84;21200;-78
2021/08/21 11:28:42;;;;;;;7.08;4.37;;;;;;;26.64;51.12;99783.88;1680358;84;21358;-77
2021/08/21 11:32:01;;;;;;;7.72;4.05;;;;;;;26.53;51.37;99790.69;1674456;84;21189;-78
2021/08/21 11:35:06;;;;;;;8.67;3.77;;;;;;;26.48;51.74;99787.37;1680291;84;21261;-77
2021/08/21 11:38:15;;;;;;;10.65;4.12;;;;;;;26.46;51.86;99791.61;1687704;84;21894;-77
2021/08/21 11:41:22;;;;;;;10.63;3.92;;;;;;;26.47;51.51;99796.08;1667034;85;21877;-77
2021/08/21 11:44:39;;;;;;;6.95;4.00;;;;;;;26.47;51.00;99789.07;1665873;85;21331;-77
2021/08/21 11:47:44;;;;;;;7.72;4.22;;;;;;;26.39;50.95;99784.06;1665234;85;21188;-77
2021/08/21 11:50:52;;;;;;;7.72;4.12;;;;;;;26.28;51.82;99799.30;1667122;85;21308;-77
2021/08/21 11:53:58;;;;;;;5.62;3.90;;;;;;;26.19;52.27;99790.67;1676337;84;21271;-78
2021/08/21 11:57:08;;;;;;;6.92;5.03;;;;;;;26.19;52.96;99801.32;1680314;84;21274;-78
2021/08/21 12:00:26;;;;;;;6.12;3.75;;;;;;;26.28;52.55;99799.30;1681672;84;21338;-77
2021/08/21 12:04:22;;;;;;;5.90;3.85;;;;;;;26.42;52.07;99800.30;1683382;84;21311;-77
2021/08/21 12:06:43;;;;;;;5.72;3.92;;;;;;;26.55;51.56;99790.42;1683184;84;21342;-77
2021/08/21 12:09:52;;;;;;;7.35;3.92;;;;;;;26.67;50.84;99797.28;1684764;84;21208;-78
2021/08/21 12:13:04;;;;;;;15.38;4.30;;;;;;;26.78;50.62;99794.41;1681922;84;21751;-78
2021/08/21 12:16:21;;;;;;;11.28;3.85;;;;;;;26.87;49.63;99796.27;1679693;84;21730;-78
2021/08/21 12:19:28;;;;;;;7.87;3.37;;;;;;;26.95;49.26;99804.02;1674480;84;21236;-78
2021/08/21 12:22:34;;;;;;;6.15;4.00;;;;;;;27.03;48.94;99796.09;1679904;84;21905;-78
2021/08/21 12:26:00;;;;;;;6.70;3.98;;;;;;;27.03;48.86;99805.91;1681586;84;22477;-77
2021/08/21 12:29:05;;;;;;;10.43;4.08;;;;;;;26.94;49.54;99805.72;1676143;84;21382;-77
2021/08/21 12:32:12;;;;;;;7.15;3.60;;;;;;;26.87;49.17;99806.66;1682804;84;21295;-78
2021/08/21 12:35:24;;;;;;;6.60;4.17;;;;;;;26.80;49.78;99806.98;1681397;84;21322;-77
2021/08/21 12:38:29;;;;;;;9.63;3.98;;;;;;;26.71;49.50;99824.19;1681186;84;21172;-78
2021/08/21 12:41:35;;;;;;;9.40;5.60;;;;;;;26.70;50.31;99815.51;1683483;84;21366;-78
2021/08/21 12:44:45;;;;;;;8.43;5.67;;;;;;;26.75;50.38;99814.89;1667179;84;21238;-78
2021/08/21 12:47:51;;;;;;;5.70;3.70;;;;;;;26.78;50.10;99823.30;1683087;84;21189;-77
2021/08/21 12:50:56;;;;;;;9.43;3.08;;;;;;;26.72;49.88;99823.91;1682815;84;21364;-77
2021/08/21 12:54:14;;;;;;;12.68;4.05;;;;;;;26.69;50.33;99822.26;1678557;84;21325;-78
2021/08/21 12:57:24;;;;;;;9.65;4.37;;;;;;;26.68;50.34;99829.84;1663746;85;21192;-77
2021/08/21 13:00:28;;;;;;;;;;;;;;;26.64;49.21;99828.75;1666884;85;21244;-78
2021/08/21 13:03:34;;;;;;;9.00;5.72;;;;;;;26.57;49.58;99818.42;1667547;85;20287;-77
2021/08/21 13:06:41;;;;;;;19.10;5.35;;;;;;;26.53;50.40;99824.34;1662329;85;21290;-77
2021/08/21 13:09:46;;;;;;;6.87;4.17;;;;;;;26.53;49.60;99827.72;1660708;85;21312;-77
2021/08/21 13:12:51;;;;;;;7.20;3.90;;;;;;;26.56;50.36;99829.38;1669950;85;21202;-78
2021/08/21 13:15:58;;;;;;;5.90;3.72;;;;;;;26.64;50.01;99827.92;1661922;85;21219;-77
2021/08/21 13:19:04;;;;;;;10.40;3.60;;;;;;;26.70;49.12;99830.37;1657818;85;21189;-77
2021/08/21 13:22:10;;;;;;;7.30;4.10;;;;;;;26.72;49.33;99833.73;1660192;85;21340;-78
2021/08/21 13:25:17;;;;;;;10.23;3.65;;;;;;;26.72;48.84;99833.73;1656394;84;21194;-77
2021/08/21 13:28:22;;;;;;;7.37;3.60;;;;;;;26.70;49.74;99840.19;1667693;85;21292;-77
2021/08/21 13:31:29;;;;;;;8.83;3.55;;;;;;;26.71;49.23;99843.82;1665690;85;21294;-77
2021/08/21 13:34:35;;;;;;;8.48;3.62;;;;;;;26.73;48.63;99845.22;1657008;85;21365;-78
2021/08/21 13:37:42;;;;;;;4.92;3.50;;;;;;;26.72;48.89;99842.15;1665712;85;21189;-77
2021/08/21 13:40:48;;;;;;;9.60;3.47;;;;;;;26.72;49.11;99849.16;1668047;85;21307;-78
2021/08/21 13:43:53;;;;;;;9.33;3.85;;;;;;;26.74;49.01;99846.05;1668529;85;21296;-78
2021/08/21 13:46:59;;;;;;;10.05;3.40;;;;;;;26.75;49.05;99847.72;1662403;85;21405;-77
2021/08/21 13:50:05;;;;;;;9.28;4.00;;;;;;;26.73;49.08;99846.62;1658103;85;21306;-77
2021/08/21 13:53:11;;;;;;;7.17;3.85;;;;;;;26.71;48.77;99849.44;1659846;85;21301;-78
2021/08/21 13:56:16;;;;;;;5.50;3.37;;;;;;;26.66;48.40;99851.72;1671710;84;22543;-77
2021/08/21 13:59:22;;;;;;;7.62;3.98;;;;;;;26.65;48.45;99850.05;1683199;84;21295;-77
2021/08/21 14:02:28;;;;;;;7.33;3.75;;;;;;;26.64;49.12;99851.19;1683149;84;21916;-77
2021/08/21 14:05:35;;;;;;;10.38;3.60;;;;;;;26.63;48.10;99844.45;1683272;84;21232;-78
2021/08/21 14:08:41;;;;;;;6.33;3.50;;;;;;;26.62;48.24;99851.20;1683044;84;21314;-77
2021/08/21 14:11:47;;;;;;;7.80;3.40;;;;;;;26.59;47.99;99849.00;1679796;84;21201;-78
2021/08/21 14:14:54;;;;;;;7.97;4.08;;;;;;;26.57;47.18;99847.87;1686976;84;21298;-78
2021/08/21 14:17:59;;;;;;;6.47;3.50;;;;;;;26.59;47.44;99842.82;1686663;84;21315;-78
2021/08/21 14:21:05;;;;;;;8.73;3.25;;;;;;;26.65;47.75;99840.23;1679057;84;21295;-77
2021/08/21 14:24:11;;;;;;;4.08;2.98;;;;;;;26.74;48.09;99845.48;1681965;84;21865;-77
2021/08/21 14:27:17;;;;;;;6.12;3.33;;;;;;;26.83;48.27;99849.06;1680300;84;21318;-77
2021/08/21 14:30:23;;;;;;;5.25;3.37;;;;;;;26.87;47.57;99850.98;1678128;84;21195;-77
2021/08/21 14:33:29;;;;;;;5.50;3.42;;;;;;;26.89;47.82;99839.45;1681099;84;21896;-78
2021/08/21 14:36:35;;;;;;;6.87;3.65;;;;;;;26.87;48.57;99845.94;1682844;84;21188;-78